createdAt,value
2019-05-09T00:00:43.778Z,99090.52
2019-05-09T00:03:13.812Z,99089.62
2019-05-09T00:05:44.026Z,99092.64
2019-05-09T00:08:13.905Z,99089.70
2019-05-09T00:10:44.877Z,99083.86
2019-05-09T00:13:13.677Z,99088.69
2019-05-09T00:15:43.654Z,99086.33
2019-05-09T00:18:14.194Z,99081.15
2019-05-09T00:20:44.141Z,99075.50
2019-05-09T00:23:13.586Z,99076.73
2019-05-09T00:25:43.338Z,99073.88
2019-05-09T00:28:13.439Z,99077.45
2019-05-09T00:30:55.688Z,99068.26
2019-05-09T00:33:28.498Z,99070.17
2019-05-09T00:35:56.989Z,99068.84
2019-05-09T00:38:34.765Z,99062.54
2019-05-09T00:41:03.918Z,99066.28
2019-05-09T00:43:34.195Z,99057.06
2019-05-09T00:46:04.552Z,99056.41
2019-05-09T00:48:40.412Z,99057.16
2019-05-09T00:51:09.121Z,99055.00
2019-05-09T00:53:37.541Z,99055.50
2019-05-09T00:56:06.076Z,99050.80
2019-05-09T00:58:34.507Z,99054.09
2019-05-09T01:01:04.366Z,99052.85
2019-05-09T01:03:33.923Z,99042.31
2019-05-09T01:06:04.030Z,99040.39
2019-05-09T01:08:33.658Z,99041.25
2019-05-09T01:11:11.322Z,99041.25
2019-05-09T01:13:34.136Z,99028.17
2019-05-09T01:16:04.562Z,99026.81
2019-05-09T01:18:33.696Z,99023.09
2019-05-09T01:21:03.993Z,99015.03
2019-05-09T01:23:34.333Z,99016.16
2019-05-09T01:26:03.838Z,99018.19
2019-05-09T01:28:33.854Z,99019.23
2019-05-09T01:31:04.065Z,99025.64
2019-05-09T01:33:34.485Z,99037.68
2019-05-09T01:36:03.877Z,99037.08
2019-05-09T01:38:33.884Z,99042.16
2019-05-09T01:41:04.084Z,99037.06
2019-05-09T01:43:33.828Z,99039.30
2019-05-09T01:46:03.696Z,99037.59
2019-05-09T01:48:34.863Z,99030.05
2019-05-09T01:51:03.517Z,99039.88
2019-05-09T01:53:33.802Z,99032.50
2019-05-09T01:56:03.649Z,99030.06
2019-05-09T01:58:34.160Z,99030.89
2019-05-09T02:01:04.464Z,99037.38
2019-05-09T02:03:33.663Z,99033.05
2019-05-09T02:06:03.503Z,99035.95
2019-05-09T02:08:35.024Z,99036.23
2019-05-09T02:11:03.912Z,99039.75
2019-05-09T02:13:33.808Z,99034.59
2019-05-09T02:16:07.101Z,99032.62
2019-05-09T02:18:37.140Z,99033.91
2019-05-09T02:21:05.673Z,99028.99
2019-05-09T02:23:34.084Z,99023.81
2019-05-09T02:26:04.000Z,99022.92
2019-05-09T02:28:34.113Z,99025.90
2019-05-09T02:31:05.240Z,99023.85
2019-05-09T02:33:34.707Z,99020.88
2019-05-09T02:36:03.163Z,99021.55
2019-05-09T02:38:31.674Z,99027.12
2019-05-09T02:41:00.085Z,99024.70
2019-05-09T02:43:29.236Z,99021.64
2019-05-09T02:45:59.871Z,99028.30
2019-05-09T02:48:28.987Z,99024.77
2019-05-09T02:51:00.272Z,99030.41
2019-05-09T02:53:28.948Z,99032.08
2019-05-09T02:55:58.472Z,99035.47
2019-05-09T02:58:28.884Z,99044.31
2019-05-09T03:01:07.988Z,99038.47
2019-05-09T03:03:39.304Z,99045.07
2019-05-09T03:06:09.131Z,99058.23
2019-05-09T03:08:38.331Z,99057.47
2019-05-09T03:11:09.897Z,99051.39
2019-05-09T03:13:39.394Z,99055.89
2019-05-09T03:16:09.781Z,99066.10
2019-05-09T03:18:38.953Z,99062.45
2019-05-09T03:21:11.897Z,99058.80
2019-05-09T03:23:40.353Z,99056.56
2019-05-09T03:26:10.479Z,99056.97
2019-05-09T03:28:40.637Z,99058.64
2019-05-09T03:31:10.717Z,99058.16
2019-05-09T03:33:40.741Z,99058.06
2019-05-09T03:36:09.439Z,99060.34
2019-05-09T03:38:37.884Z,99052.66
2019-05-09T03:41:08.470Z,99034.92
2019-05-09T03:43:37.727Z,99039.82
2019-05-09T03:46:07.955Z,99039.77
2019-05-09T03:48:54.531Z,99033.72
2019-05-09T03:51:22.975Z,99024.55
2019-05-09T03:53:51.428Z,99029.95
2019-05-09T03:56:24.427Z,99028.08
2019-05-09T03:58:53.016Z,99025.76
2019-05-09T04:01:21.531Z,99030.12
2019-05-09T04:03:49.990Z,99023.14
2019-05-09T04:06:18.638Z,99029.67
2019-05-09T04:08:48.139Z,99037.27
2019-05-09T04:11:18.490Z,99038.75
2019-05-09T04:13:55.041Z,99035.27
2019-05-09T04:16:23.622Z,99040.22
2019-05-09T04:18:52.085Z,99037.77
2019-05-09T04:21:20.554Z,99040.00
2019-05-09T04:23:48.968Z,99039.02
2019-05-09T04:26:19.005Z,99032.00
2019-05-09T04:28:47.437Z,99036.12
2019-05-09T04:31:17.802Z,99043.31
2019-05-09T04:33:47.368Z,99038.84
2019-05-09T04:36:18.237Z,99035.52
2019-05-09T04:38:47.199Z,99033.30
2019-05-09T04:41:23.275Z,99037.25
2019-05-09T04:43:45.864Z,99037.44
2019-05-09T04:46:21.066Z,99038.16
2019-05-09T04:48:47.510Z,99036.58
2019-05-09T04:51:15.430Z,99038.52
2019-05-09T04:53:43.954Z,99034.41
2019-05-09T04:56:20.170Z,99032.63
2019-05-09T04:58:48.592Z,99037.75
2019-05-09T05:01:19.803Z,99041.23
2019-05-09T05:03:49.010Z,99034.88
2019-05-09T05:06:20.548Z,99040.89
2019-05-09T05:08:47.949Z,99037.12
2019-05-09T05:11:17.812Z,99032.56
2019-05-09T05:13:48.172Z,99031.72
2019-05-09T05:16:18.454Z,99038.20
2019-05-09T05:18:47.768Z,99037.70
2019-05-09T05:21:19.978Z,99031.90
2019-05-09T05:23:48.150Z,99034.47
2019-05-09T05:26:18.387Z,99034.45
2019-05-09T05:28:47.471Z,99039.77
2019-05-09T05:31:18.060Z,99033.20
2019-05-09T05:33:51.102Z,99039.09
2019-05-09T05:36:19.772Z,99040.50
2019-05-09T05:38:48.205Z,99044.19
2019-05-09T05:41:18.327Z,99043.07
2019-05-09T05:43:47.918Z,99044.39
2019-05-09T05:46:24.040Z,99037.50
2019-05-09T05:48:53.648Z,99044.14
2019-05-09T05:51:22.155Z,99034.56
2019-05-09T05:53:50.716Z,99044.90
2019-05-09T05:56:19.174Z,99045.52
2019-05-09T05:58:48.971Z,99044.59
2019-05-09T06:01:18.821Z,99050.59
2019-05-09T06:03:48.093Z,99050.99
2019-05-09T06:06:17.532Z,99050.31
2019-05-09T06:08:48.374Z,99044.58
2019-05-09T06:11:17.752Z,99052.46
2019-05-09T06:13:54.490Z,99052.70
2019-05-09T06:16:18.200Z,99045.16
2019-05-09T06:18:47.552Z,99049.37
2019-05-09T06:21:17.755Z,99049.45
2019-05-09T06:23:48.243Z,99053.17
2019-05-09T06:26:18.572Z,99055.16
2019-05-09T06:28:48.156Z,99053.87
2019-05-09T06:31:17.854Z,99055.69
2019-05-09T06:33:52.590Z,99058.89
2019-05-09T06:36:18.857Z,99055.41
2019-05-09T06:38:48.819Z,99056.82
2019-05-09T06:41:17.659Z,99059.14
2019-05-09T06:43:49.660Z,99064.96
2019-05-09T06:46:22.458Z,99069.63
2019-05-09T06:48:50.949Z,99071.00
2019-05-09T06:51:21.368Z,99065.38
2019-05-09T06:53:49.553Z,99059.47
2019-05-09T06:56:18.039Z,99053.97
2019-05-09T06:58:48.138Z,99055.75
2019-05-09T07:01:28.524Z,99060.05
2019-05-09T07:04:01.244Z,99047.05
2019-05-09T07:06:31.392Z,99047.13
2019-05-09T07:09:04.198Z,99051.14
2019-05-09T07:11:32.655Z,99040.04
2019-05-09T07:14:01.068Z,99040.77
2019-05-09T07:16:29.487Z,99026.37
2019-05-09T07:18:58.086Z,99014.52
2019-05-09T07:21:28.682Z,99013.88
2019-05-09T07:23:58.285Z,99017.84
2019-05-09T07:26:31.505Z,99023.05
2019-05-09T07:28:59.903Z,99014.58
2019-05-09T07:31:29.990Z,99012.28
2019-05-09T07:34:00.044Z,99018.08
2019-05-09T07:36:29.422Z,99016.02
2019-05-09T07:38:58.339Z,99008.16
2019-05-09T07:41:28.181Z,99010.72
2019-05-09T07:43:58.255Z,99016.38
2019-05-09T07:46:29.076Z,99017.43
2019-05-09T07:48:58.050Z,99013.96
2019-05-09T07:51:27.528Z,99014.02
2019-05-09T07:53:58.657Z,99015.93
2019-05-09T07:56:28.486Z,99008.09
2019-05-09T07:58:58.485Z,99000.78
2019-05-09T08:01:28.049Z,99010.13
2019-05-09T08:03:58.359Z,99004.64
2019-05-09T08:06:28.650Z,99004.39
2019-05-09T08:08:58.173Z,99001.87
2019-05-09T08:11:28.467Z,99000.70
2019-05-09T08:13:57.632Z,98997.56
2019-05-09T08:16:27.869Z,99000.13
2019-05-09T08:18:57.822Z,98994.23
2019-05-09T08:21:27.706Z,98988.44
2019-05-09T08:23:57.895Z,98987.46
2019-05-09T08:26:29.666Z,98980.13
2019-05-09T08:28:58.388Z,98978.64
2019-05-09T08:31:28.109Z,98978.03
2019-05-09T08:33:59.362Z,98983.70
2019-05-09T08:36:28.239Z,98979.58
2019-05-09T08:38:58.678Z,98977.17
2019-05-09T08:41:29.061Z,98988.23
2019-05-09T08:43:57.700Z,98983.91
2019-05-09T08:46:28.561Z,98978.18
2019-05-09T08:48:57.641Z,98983.12
2019-05-09T08:51:37.411Z,98978.44
2019-05-09T08:54:00.870Z,98978.86
2019-05-09T08:56:29.375Z,98976.64
2019-05-09T08:59:01.760Z,98978.53
2019-05-09T09:01:46.126Z,98975.59
2019-05-09T09:03:58.261Z,98976.48
2019-05-09T09:06:27.871Z,98970.95
2019-05-09T09:08:57.592Z,98968.20
2019-05-09T09:11:28.055Z,98966.59
2019-05-09T09:13:57.733Z,98966.09
2019-05-09T09:16:28.336Z,98955.28
2019-05-09T09:18:58.394Z,98957.14
2019-05-09T09:21:28.610Z,98956.28
2019-05-09T09:23:58.213Z,98959.61
2019-05-09T09:26:27.772Z,98955.03
2019-05-09T09:28:57.786Z,98950.34
2019-05-09T09:31:28.425Z,98950.09
2019-05-09T09:33:58.546Z,98953.50
2019-05-09T09:36:28.097Z,98953.78
2019-05-09T09:38:58.688Z,98952.20
2019-05-09T09:41:28.670Z,98945.55
2019-05-09T09:43:58.189Z,98933.13
2019-05-09T09:46:28.610Z,98926.09
2019-05-09T09:48:58.580Z,98927.20
2019-05-09T09:51:27.650Z,98925.55
2019-05-09T09:53:58.255Z,98916.13
2019-05-09T09:56:28.185Z,98919.53
2019-05-09T09:59:14.287Z,98911.14
2019-05-09T10:01:50.316Z,98918.45
2019-05-09T10:04:23.977Z,98914.88
2019-05-09T10:06:52.977Z,98920.19
2019-05-09T10:09:19.929Z,98908.73
2019-05-09T10:11:48.496Z,98908.73
2019-05-09T10:14:18.713Z,98910.69
2019-05-09T10:16:54.971Z,98914.12
2019-05-09T10:19:29.499Z,98908.17
2019-05-09T10:22:11.615Z,98898.94
2019-05-09T10:24:40.009Z,98908.03
2019-05-09T10:27:10.121Z,98903.18
2019-05-09T10:29:39.040Z,98902.22
2019-05-09T10:32:12.195Z,98900.34
2019-05-09T10:34:40.831Z,98900.84
2019-05-09T10:37:09.255Z,98908.54
2019-05-09T10:39:38.171Z,98900.77
2019-05-09T10:42:08.321Z,98897.64
2019-05-09T10:44:38.389Z,98900.70
2019-05-09T10:47:19.457Z,98897.27
2019-05-09T10:49:48.762Z,98899.59
2019-05-09T10:52:18.228Z,98892.66
2019-05-09T10:54:46.803Z,98897.86
2019-05-09T10:57:15.312Z,98897.98
2019-05-09T10:59:43.690Z,98893.14
2019-05-09T11:02:12.125Z,98895.95
2019-05-09T11:04:44.164Z,98888.03
2019-05-09T11:07:10.719Z,98884.69
2019-05-09T11:09:39.198Z,98878.83
2019-05-09T11:12:08.032Z,98868.22
2019-05-09T11:14:37.874Z,98865.63
2019-05-09T11:17:14.131Z,98860.77
2019-05-09T11:19:36.641Z,98858.44
2019-05-09T11:22:07.812Z,98860.33
2019-05-09T11:24:44.889Z,98858.71
2019-05-09T11:27:08.319Z,98852.72
2019-05-09T11:29:35.605Z,98847.78
2019-05-09T11:32:04.783Z,98859.36
2019-05-09T11:34:33.234Z,98850.44
2019-05-09T11:37:01.657Z,98851.95
2019-05-09T11:39:36.619Z,98841.14
2019-05-09T11:42:00.199Z,98830.36
2019-05-09T11:44:28.680Z,98836.04
2019-05-09T11:46:58.253Z,98823.50
2019-05-09T11:49:29.385Z,98816.45
2019-05-09T11:51:57.723Z,98814.16
2019-05-09T11:54:27.925Z,98816.28
2019-05-09T11:56:57.619Z,98812.75
2019-05-09T11:59:28.009Z,98809.52
2019-05-09T12:01:58.610Z,98808.45
2019-05-09T12:04:28.132Z,98810.47
2019-05-09T12:06:57.737Z,98805.48
2019-05-09T12:09:28.646Z,98801.86
2019-05-09T12:11:59.079Z,98804.98
2019-05-09T12:14:27.629Z,98801.19
2019-05-09T12:16:56.084Z,98800.81
2019-05-09T12:19:24.533Z,98799.95
2019-05-09T12:21:53.062Z,98796.74
2019-05-09T12:24:21.454Z,98796.93
2019-05-09T12:26:49.863Z,98797.75
2019-05-09T12:29:19.575Z,98793.95
2019-05-09T12:31:48.675Z,98791.30
2019-05-09T12:34:19.310Z,98792.94
2019-05-09T12:36:49.342Z,98789.13
2019-05-09T12:39:18.846Z,98789.16
2019-05-09T12:41:48.468Z,98784.92
2019-05-09T12:44:18.219Z,98784.36
2019-05-09T12:46:48.770Z,98787.39
2019-05-09T12:49:18.983Z,98770.00
2019-05-09T12:51:47.697Z,98770.97
2019-05-09T12:54:18.747Z,98771.69
2019-05-09T12:56:48.563Z,98769.08
2019-05-09T12:59:18.780Z,98767.52
2019-05-09T13:01:49.272Z,98774.54
2019-05-09T13:04:16.842Z,98770.55
2019-05-09T13:06:45.314Z,98778.31
2019-05-09T13:09:13.756Z,98779.08
2019-05-09T13:11:42.166Z,98777.86
2019-05-09T13:14:10.609Z,98786.88
2019-05-09T13:16:49.224Z,98788.03
2019-05-09T13:19:15.226Z,98785.27
2019-05-09T13:21:43.749Z,98787.59
2019-05-09T13:24:12.243Z,98791.58
2019-05-09T13:26:41.513Z,98786.22
2019-05-09T13:29:10.026Z,98793.17
2019-05-09T13:31:39.643Z,98781.53
2019-05-09T13:34:08.394Z,98792.68
2019-05-09T13:36:36.762Z,98785.73
2019-05-09T13:39:08.756Z,98786.06
2019-05-09T13:41:38.365Z,98788.77
2019-05-09T13:44:12.969Z,98782.12
2019-05-09T13:46:38.806Z,98779.89
2019-05-09T13:49:12.477Z,98795.88
2019-05-09T13:51:47.187Z,98800.47
2019-05-09T13:54:07.480Z,98805.27
2019-05-09T13:56:35.890Z,98804.37
2019-05-09T13:59:04.463Z,98815.48
2019-05-09T14:01:32.880Z,98822.17
2019-05-09T14:04:02.157Z,98824.52
2019-05-09T14:06:30.620Z,98831.48
2019-05-09T14:08:59.930Z,98833.13
2019-05-09T14:11:29.322Z,98836.61
2019-05-09T14:13:57.806Z,98838.56
2019-05-09T14:16:28.797Z,98839.78
2019-05-09T14:18:59.001Z,98848.89
2019-05-09T14:21:29.563Z,98852.77
2019-05-09T14:24:11.001Z,98862.39
2019-05-09T14:26:27.740Z,98864.74
2019-05-09T14:28:58.233Z,98862.00
2019-05-09T14:31:31.835Z,98870.30
2019-05-09T14:33:57.126Z,98882.04
2019-05-09T14:36:27.782Z,98886.03
2019-05-09T14:38:57.979Z,98895.06
2019-05-09T14:41:27.686Z,98902.42
2019-05-09T14:43:56.098Z,98905.59
2019-05-09T14:46:28.480Z,98915.92
2019-05-09T14:48:58.482Z,98922.02
2019-05-09T14:51:28.434Z,98922.03
2019-05-09T14:53:59.450Z,98927.70
2019-05-09T14:56:28.043Z,98931.89
2019-05-09T14:58:58.022Z,98936.39
2019-05-09T15:01:28.790Z,98941.09
2019-05-09T15:03:58.553Z,98944.88
2019-05-09T15:06:28.236Z,98943.44
2019-05-09T15:08:58.100Z,98946.22
2019-05-09T15:11:28.191Z,98956.16
2019-05-09T15:13:58.450Z,98961.71
2019-05-09T15:16:28.282Z,98963.13
2019-05-09T15:18:58.379Z,98968.38
2019-05-09T15:21:27.078Z,98968.77
2019-05-09T15:23:55.513Z,98975.93
2019-05-09T15:26:23.933Z,98976.78
2019-05-09T15:28:52.410Z,98981.88
2019-05-09T15:31:20.978Z,98987.63
2019-05-09T15:33:49.448Z,98987.09
2019-05-09T15:36:19.336Z,98990.38
2019-05-09T15:38:48.767Z,98997.98
2019-05-09T15:41:18.394Z,98998.88
2019-05-09T15:43:48.499Z,99005.66
2019-05-09T15:46:27.971Z,99006.59
2019-05-09T15:48:58.263Z,99011.61
2019-05-09T15:51:27.958Z,99020.30
2019-05-09T15:53:57.777Z,99019.17
2019-05-09T15:56:28.685Z,99022.27
2019-05-09T15:58:57.983Z,99025.16
2019-05-09T16:01:27.883Z,99033.75
2019-05-09T16:03:56.427Z,99034.69
2019-05-09T16:06:24.920Z,99032.73
2019-05-09T16:08:53.321Z,99036.42
2019-05-09T16:11:21.738Z,99042.55
2019-05-09T16:13:50.166Z,99042.78
2019-05-09T16:16:18.675Z,99045.84
2019-05-09T16:18:48.574Z,99048.62
2019-05-09T16:21:17.383Z,99058.42
2019-05-09T16:23:48.530Z,99059.05
2019-05-09T16:26:18.083Z,99071.46
2019-05-09T16:28:48.695Z,99072.36
2019-05-09T16:31:16.452Z,99070.33
2019-05-09T16:33:47.589Z,99078.32
2019-05-09T16:36:17.399Z,99083.14
2019-05-09T16:38:48.485Z,99091.72
2019-05-09T16:41:18.363Z,99100.97
2019-05-09T16:43:47.783Z,99097.68
2019-05-09T16:46:18.148Z,99098.00
2019-05-09T16:48:47.556Z,99101.41
2019-05-09T16:51:18.206Z,99104.50
2019-05-09T16:53:49.531Z,99106.84
2019-05-09T16:56:18.043Z,99118.22
2019-05-09T16:58:46.757Z,99117.89
2019-05-09T17:01:18.101Z,99124.44
2019-05-09T17:03:45.428Z,99118.91
2019-05-09T17:06:13.970Z,99128.94
2019-05-09T17:08:42.478Z,99136.93
2019-05-09T17:11:10.958Z,99138.27
2019-05-09T17:13:39.482Z,99141.44
2019-05-09T17:16:08.349Z,99146.97
2019-05-09T17:18:38.202Z,99155.80
2019-05-09T17:21:18.460Z,99157.95
2019-05-09T17:23:44.763Z,99157.88
2019-05-09T17:26:13.164Z,99171.20
2019-05-09T17:28:41.610Z,99175.19
2019-05-09T17:31:10.037Z,99180.91
2019-05-09T17:33:38.571Z,99189.33
2019-05-09T17:36:07.160Z,99196.69
2019-05-09T17:38:35.578Z,99203.84
2019-05-09T17:41:04.083Z,99207.84
2019-05-09T17:43:32.530Z,99222.19
2019-05-09T17:46:00.959Z,99221.63
2019-05-09T17:48:29.386Z,99226.03
2019-05-09T17:50:58.102Z,99226.54
2019-05-09T17:53:29.302Z,99232.81
2019-05-09T17:55:58.586Z,99240.59
2019-05-09T17:58:33.064Z,99237.39
2019-05-09T18:00:57.764Z,99241.77
2019-05-09T18:03:28.883Z,99236.55
2019-05-09T18:05:57.751Z,99241.58
2019-05-09T18:08:28.304Z,99259.72
2019-05-09T18:10:58.231Z,99256.33
2019-05-09T18:13:29.629Z,99262.25
2019-05-09T18:15:56.938Z,99270.09
2019-05-09T18:18:28.161Z,99270.19
2019-05-09T18:20:58.059Z,99269.36
2019-05-09T18:23:28.377Z,99280.87
2019-05-09T18:25:58.553Z,99278.84
2019-05-09T18:28:29.086Z,99276.40
2019-05-09T18:30:58.552Z,99280.08
2019-05-09T18:33:32.105Z,99284.86
2019-05-09T18:36:00.515Z,99294.30
2019-05-09T18:38:32.067Z,99301.34
2019-05-09T18:41:07.000Z,99302.16
2019-05-09T18:43:33.663Z,99303.81
2019-05-09T18:46:02.545Z,99309.77
2019-05-09T18:48:31.103Z,99310.66
2019-05-09T18:51:00.028Z,99322.00
2019-05-09T18:53:28.812Z,99321.40
2019-05-09T18:55:58.335Z,99324.57
2019-05-09T18:58:26.925Z,99332.88
2019-05-09T19:00:55.763Z,99334.35
2019-05-09T19:03:24.198Z,99330.96
2019-05-09T19:05:52.786Z,99343.08
2019-05-09T19:08:21.213Z,99346.37
2019-05-09T19:10:52.301Z,99349.36
2019-05-09T19:13:24.800Z,99347.72
2019-05-09T19:16:01.267Z,99344.73
2019-05-09T19:18:34.437Z,99353.27
2019-05-09T19:21:07.274Z,99359.19
2019-05-09T19:23:35.688Z,99349.42
2019-05-09T19:26:06.665Z,99361.50
2019-05-09T19:28:35.140Z,99372.55
2019-05-09T19:31:03.923Z,99374.06
2019-05-09T19:33:32.261Z,99381.91
2019-05-09T19:36:00.691Z,99381.22
2019-05-09T19:38:29.204Z,99385.98
2019-05-09T19:40:57.637Z,99395.02
2019-05-09T19:43:26.173Z,99405.30
2019-05-09T19:45:54.615Z,99407.00
2019-05-09T19:48:23.508Z,99413.01
2019-05-09T19:50:51.977Z,99408.81
2019-05-09T19:53:20.758Z,99414.73
2019-05-09T19:55:49.569Z,99424.94
2019-05-09T19:58:18.562Z,99428.88
2019-05-09T20:00:47.574Z,99441.38
2019-05-09T20:03:15.976Z,99442.83
2019-05-09T20:05:44.586Z,99446.78
2019-05-09T20:08:13.165Z,99447.71
2019-05-09T20:10:59.725Z,99452.39
2019-05-09T20:13:33.006Z,99450.48
2019-05-09T20:16:01.551Z,99452.83
2019-05-09T20:18:29.998Z,99459.44
2019-05-09T20:20:58.512Z,99460.27
2019-05-09T20:23:26.934Z,99462.31
2019-05-09T20:25:55.380Z,99461.38
2019-05-09T20:28:23.846Z,99463.67
2019-05-09T20:30:52.267Z,99458.58
2019-05-09T20:33:20.696Z,99469.60
2019-05-09T20:35:49.106Z,99477.76
2019-05-09T20:38:17.885Z,99473.95
2019-05-09T20:40:46.497Z,99474.50
2019-05-09T20:43:15.131Z,99466.92
2019-05-09T20:45:43.727Z,99471.62
2019-05-09T20:48:12.312Z,99473.27
2019-05-09T20:50:44.340Z,99482.47
2019-05-09T20:53:11.520Z,99475.28
2019-05-09T20:55:40.187Z,99481.64
2019-05-09T20:58:08.989Z,99486.30
2019-05-09T21:00:37.816Z,99482.14
2019-05-09T21:03:08.145Z,99495.28
2019-05-09T21:05:36.876Z,99495.55
2019-05-09T21:08:05.572Z,99502.43
2019-05-09T21:10:34.203Z,99503.62
2019-05-09T21:13:02.770Z,99517.02
2019-05-09T21:15:31.482Z,99516.31
2019-05-09T21:18:00.170Z,99522.78
2019-05-09T21:20:28.801Z,99528.98
2019-05-09T21:22:57.438Z,99535.43
2019-05-09T21:25:26.025Z,99539.89
2019-05-09T21:27:54.663Z,99542.31
2019-05-09T21:30:24.278Z,99542.81
2019-05-09T21:32:52.947Z,99545.44
2019-05-09T21:35:21.480Z,99542.42
2019-05-09T21:37:49.887Z,99560.39
2019-05-09T21:40:18.354Z,99556.34
2019-05-09T21:42:46.924Z,99557.26
2019-05-09T21:45:15.432Z,99568.16
2019-05-09T21:47:43.967Z,99564.73
2019-05-09T21:50:13.829Z,99571.47
2019-05-09T21:52:43.899Z,99581.25
2019-05-09T21:55:12.476Z,99581.78
2019-05-09T21:57:40.888Z,99588.94
2019-05-09T22:00:15.255Z,99594.73
2019-05-09T22:02:44.239Z,99599.96
2019-05-09T22:05:12.934Z,99602.11
2019-05-09T22:07:41.428Z,99602.91
2019-05-09T22:10:10.151Z,99603.73
2019-05-09T22:12:38.640Z,99601.23
2019-05-09T22:15:07.947Z,99606.63
2019-05-09T22:17:40.151Z,99608.11
2019-05-09T22:20:13.257Z,99612.42
2019-05-09T22:22:41.769Z,99604.80
2019-05-09T22:25:12.266Z,99607.45
2019-05-09T22:27:40.689Z,99608.27
2019-05-09T22:30:11.823Z,99608.76
2019-05-09T22:32:40.344Z,99615.25
2019-05-09T22:35:09.209Z,99615.78
2019-05-09T22:37:37.613Z,99620.42
2019-05-09T22:40:07.950Z,99614.27
2019-05-09T22:42:36.478Z,99613.83
2019-05-09T22:45:08.891Z,99610.14
2019-05-09T22:47:37.379Z,99615.41
2019-05-09T22:50:07.294Z,99614.42
2019-05-09T22:52:35.680Z,99624.56
2019-05-09T22:55:04.867Z,99623.33
2019-05-09T22:57:33.317Z,99622.17
2019-05-09T23:00:02.490Z,99626.81
2019-05-09T23:02:31.075Z,99631.86
2019-05-09T23:04:59.701Z,99635.71
2019-05-09T23:07:28.142Z,99632.25
2019-05-09T23:09:56.633Z,99637.20
2019-05-09T23:12:25.157Z,99642.92
2019-05-09T23:14:53.597Z,99636.72
2019-05-09T23:17:22.007Z,99640.64
2019-05-09T23:19:50.531Z,99644.14
2019-05-09T23:22:19.464Z,99646.64
2019-05-09T23:24:47.993Z,99651.34
2019-05-09T23:27:18.097Z,99652.68
2019-05-09T23:29:46.571Z,99654.34
2019-05-09T23:32:16.686Z,99654.38
2019-05-09T23:34:45.106Z,99653.66
2019-05-09T23:37:13.608Z,99652.02
2019-05-09T23:39:43.685Z,99675.63
2019-05-09T23:42:12.090Z,99687.11
2019-05-09T23:44:40.589Z,99688.59
2019-05-09T23:47:09.066Z,99694.41
2019-05-09T23:49:37.517Z,99690.92
2019-05-09T23:52:05.911Z,99689.09
2019-05-09T23:54:51.964Z,99693.25
2019-05-09T23:57:37.851Z,99692.80
